Waverly, Kentucky
Current Conditions -  °F | °C
As of 8:35 PM on Sunday 21 Dec 2014 (Local Time) from KEHR Reporting Station
Clear Clear  
Wind Chill: 28°   Ceiling: Unl
Heat Index: 34°   Visibility: 10mi
Dew Point: 27°   Wind: 7mph
Humidity: 75%   Direction: 100°E
Pressure: 30.05"   Gusts: NA
Location:  37.71°N, 87.81°W
Report Text: KEHR 220235Z AUTO 10006KT 10SM CLR 01/M03 A3005 RMK AO1
Loading
Personal Weather Stations






























Interactive Weather Map New forecast layout! Learn more

10-Day Weather Forecast

Advertisements
Track Severe Weather on mobile